createdAt,value
2018-01-14T00:11:24.961Z,80.34
2018-01-14T00:32:01.157Z,80.53
2018-01-14T00:52:38.716Z,80.34
2018-01-14T01:13:12.938Z,80.61
2018-01-14T01:33:47.891Z,80.07
2018-01-14T01:54:25.011Z,80.27
2018-01-14T02:15:00.646Z,80.37
2018-01-14T02:35:33.856Z,80.59
2018-01-14T02:56:08.676Z,80.81
2018-01-14T03:16:40.870Z,81.51
2018-01-14T03:37:18.293Z,81.73
2018-01-14T03:57:50.734Z,82.03
2018-01-14T04:18:21.802Z,82.28
2018-01-14T04:39:00.184Z,82.43
2018-01-14T04:59:34.413Z,82.93
2018-01-14T05:20:11.657Z,83.23
2018-01-14T05:40:50.540Z,83.39
2018-01-14T06:01:26.116Z,83.54
2018-01-14T06:22:02.924Z,84.11
2018-01-14T06:42:36.353Z,84.13
2018-01-14T07:03:09.781Z,84.07
2018-01-14T07:23:46.279Z,83.95
2018-01-14T07:44:20.324Z,83.71
2018-01-14T08:05:06.653Z,83.60
2018-01-14T08:25:45.007Z,83.81
2018-01-14T09:04:19.438Z,83.32
2018-01-14T09:24:51.071Z,82.25
2018-01-14T09:45:26.917Z,82.57
2018-01-14T10:06:05.613Z,82.25
2018-01-14T10:11:51.098Z,82.46
2018-01-14T10:14:19.457Z,81.89
2018-01-14T10:16:47.757Z,82.23
2018-01-14T10:19:16.032Z,82.41
2018-01-14T10:21:44.323Z,82.23
2018-01-14T10:24:12.597Z,82.31
2018-01-14T10:26:40.940Z,82.46
2018-01-14T10:29:10.001Z,82.25
2018-01-14T10:31:38.310Z,82.22
2018-01-14T10:34:07.338Z,82.42
2018-01-14T10:36:35.620Z,82.66
2018-01-14T10:39:04.633Z,82.25
2018-01-14T10:41:33.011Z,82.66
2018-01-14T10:44:01.308Z,82.69
2018-01-14T10:46:29.569Z,82.30
2018-01-14T10:48:57.837Z,82.31
2018-01-14T10:51:26.179Z,82.05
2018-01-14T10:53:54.531Z,82.21
2018-01-14T10:56:22.802Z,82.23
2018-01-14T10:58:51.081Z,81.85
2018-01-14T11:01:24.790Z,81.89
2018-01-14T11:03:53.101Z,81.19
2018-01-14T11:06:21.409Z,81.26
2018-01-14T11:08:49.665Z,81.12
2018-01-14T11:11:17.958Z,80.79
2018-01-14T11:13:46.257Z,80.72
2018-01-14T11:16:15.369Z,80.42
2018-01-14T11:18:43.652Z,80.14
2018-01-14T11:21:11.911Z,79.64
2018-01-14T11:23:40.203Z,79.62
2018-01-14T11:26:08.472Z,79.78
2018-01-14T11:28:38.963Z,79.13
2018-01-14T11:31:07.983Z,78.90
2018-01-14T11:42:30.103Z,78.78
2018-01-14T11:45:03.495Z,78.67
2018-01-14T11:47:32.044Z,78.49
2018-01-14T11:50:00.330Z,78.51
2018-01-14T11:52:28.618Z,78.41
2018-01-14T11:54:56.948Z,78.42
2018-01-14T11:57:25.991Z,78.36
2018-01-14T11:59:54.569Z,77.97
2018-01-14T12:02:23.287Z,78.20
2018-01-14T12:04:51.607Z,78.34
2018-01-14T12:07:19.900Z,78.13
2018-01-14T12:09:48.171Z,77.95
2018-01-14T12:12:16.446Z,77.76
2018-01-14T12:14:44.741Z,77.91
2018-01-14T12:17:13.016Z,77.71
2018-01-14T12:19:41.274Z,77.51
2018-01-14T12:22:09.555Z,77.70
2018-01-14T12:24:37.826Z,77.50
2018-01-14T12:27:06.974Z,77.66
2018-01-14T12:29:35.256Z,77.93
2018-01-14T12:32:03.536Z,77.72
2018-01-14T12:34:40.318Z,77.42
2018-01-14T12:37:08.585Z,77.62
2018-01-14T12:39:36.891Z,77.34
2018-01-14T12:42:05.151Z,77.15
2018-01-14T12:44:33.418Z,77.24
2018-01-14T12:47:01.704Z,77.33
2018-01-14T12:49:30.623Z,77.41
2018-01-14T12:51:59.705Z,77.08
2018-01-14T12:54:27.969Z,77.17
2018-01-14T12:56:56.230Z,77.26
2018-01-14T12:59:24.526Z,77.50
2018-01-14T13:01:52.812Z,77.35
2018-01-14T13:04:21.110Z,77.03
2018-01-14T13:06:50.306Z,76.81
2018-01-14T13:09:19.655Z,77.37
2018-01-14T13:11:47.939Z,77.06
2018-01-14T13:14:16.211Z,76.98
2018-01-14T13:16:44.523Z,76.86
2018-01-14T13:19:12.845Z,76.97
2018-01-14T13:21:41.116Z,76.59
2018-01-14T13:24:09.433Z,76.59
2018-01-14T13:26:37.707Z,76.51
2018-01-14T13:29:05.979Z,76.75
2018-01-14T13:31:34.290Z,77.34
2018-01-14T13:34:02.604Z,77.10
2018-01-14T13:36:31.667Z,76.57
2018-01-14T13:38:59.957Z,76.72
2018-01-14T13:41:28.278Z,76.22
2018-01-14T13:43:56.567Z,76.26
2018-01-14T13:46:24.836Z,75.96
2018-01-14T13:48:53.178Z,75.96
2018-01-14T13:51:21.425Z,75.98
2018-01-14T13:53:50.471Z,76.23
2018-01-14T13:56:18.759Z,75.89
2018-01-14T13:58:47.062Z,75.71
2018-01-14T14:01:15.384Z,75.68
2018-01-14T14:03:43.627Z,75.98
2018-01-14T14:06:11.924Z,75.78
2018-01-14T14:08:40.226Z,76.36
2018-01-14T14:11:09.262Z,76.34
2018-01-14T14:13:37.581Z,75.98
2018-01-14T14:16:05.859Z,75.48
2018-01-14T14:18:34.173Z,75.87
2018-01-14T14:21:02.468Z,76.15
2018-01-14T14:23:30.738Z,75.88
2018-01-14T14:25:59.046Z,75.85
2018-01-14T14:28:27.317Z,76.03
2018-01-14T14:30:55.592Z,76.08
2018-01-14T14:33:23.904Z,75.99
2018-01-14T14:35:52.168Z,76.33
2018-01-14T14:38:20.462Z,76.38
2018-01-14T14:40:48.754Z,75.96
2018-01-14T14:43:17.784Z,75.82
2018-01-14T14:45:46.091Z,75.62
2018-01-14T14:48:14.358Z,75.24
2018-01-14T14:50:42.646Z,75.81
2018-01-14T14:53:10.958Z,76.12
2018-01-14T14:55:40.010Z,75.46
2018-01-14T14:58:08.292Z,75.65
2018-01-14T15:00:36.551Z,75.14
2018-01-14T15:03:04.844Z,75.15
2018-01-14T15:05:33.131Z,75.17
2018-01-14T15:08:01.405Z,75.22
2018-01-14T15:10:29.696Z,75.28
2018-01-14T15:12:57.970Z,75.52
2018-01-14T15:15:26.240Z,75.37
2018-01-14T15:17:54.519Z,75.82
2018-01-14T15:20:22.805Z,75.63
2018-01-14T15:22:51.111Z,75.67
2018-01-14T15:25:20.227Z,76.02
2018-01-14T15:27:49.316Z,76.15
2018-01-14T15:30:18.371Z,75.87
2018-01-14T15:32:46.854Z,75.47
2018-01-14T15:35:15.247Z,75.41
2018-01-14T15:37:43.596Z,74.96
2018-01-14T15:40:11.966Z,74.95
2018-01-14T15:42:40.343Z,75.10
2018-01-14T15:45:10.596Z,75.14
2018-01-14T15:47:39.053Z,75.36
2018-01-14T15:50:08.555Z,75.48
2018-01-14T15:52:36.980Z,75.49
2018-01-14T15:55:06.278Z,75.55
2018-01-14T15:57:34.681Z,75.14
2018-01-14T16:00:03.955Z,75.30
2018-01-14T16:02:33.226Z,75.87
2018-01-14T16:05:06.253Z,75.87
2018-01-14T16:07:34.613Z,77.01
2018-01-14T16:10:04.851Z,75.63
2018-01-14T16:12:35.657Z,75.96
2018-01-14T16:15:08.165Z,75.36
2018-01-14T16:17:36.399Z,74.94
2018-01-14T16:20:06.656Z,75.41
2018-01-14T16:22:38.713Z,75.67
2018-01-14T16:25:07.090Z,76.13
2018-01-14T16:27:38.550Z,75.83
2018-01-14T16:30:07.873Z,75.74
2018-01-14T16:32:39.933Z,75.63
2018-01-14T16:35:11.973Z,75.98
2018-01-14T16:37:41.290Z,75.67
2018-01-14T16:40:10.589Z,75.89
2018-01-14T16:42:39.890Z,76.27
2018-01-14T16:45:08.351Z,76.33
2018-01-14T16:47:36.644Z,76.38
2018-01-14T16:50:05.020Z,76.16
2018-01-14T16:52:33.696Z,75.94
2018-01-14T16:55:02.085Z,76.10
2018-01-14T16:57:31.407Z,76.25
2018-01-14T16:59:59.715Z,76.25
2018-01-14T17:02:28.777Z,76.50
2018-01-14T17:04:57.417Z,75.70
2018-01-14T17:07:29.821Z,76.03
2018-01-14T17:09:59.155Z,76.23
2018-01-14T17:12:28.425Z,75.49
2018-01-14T17:14:57.769Z,75.71
2018-01-14T17:17:31.968Z,75.92
2018-01-14T17:20:00.322Z,75.85
2018-01-14T17:22:29.622Z,76.29
2018-01-14T17:24:58.020Z,76.12
2018-01-14T17:27:27.047Z,75.95
2018-01-14T17:29:56.758Z,75.51
2018-01-14T17:32:25.057Z,75.78
2018-01-14T17:34:54.297Z,75.54
2018-01-14T17:37:22.762Z,75.27
2018-01-14T17:39:51.978Z,75.82
2018-01-14T17:42:21.259Z,76.20
2018-01-14T17:44:49.733Z,76.13
2018-01-14T17:47:22.948Z,76.05
2018-01-14T17:49:51.333Z,76.16
2018-01-14T17:52:19.726Z,76.86
2018-01-14T17:54:48.113Z,76.75
2018-01-14T17:57:16.535Z,75.82
2018-01-14T17:59:44.840Z,75.77
2018-01-14T18:02:13.330Z,76.02
2018-01-14T18:04:41.618Z,76.23
2018-01-14T18:07:10.002Z,75.72
2018-01-14T18:09:38.393Z,75.57
2018-01-14T18:12:11.376Z,76.54
2018-01-14T18:14:39.796Z,76.48
2018-01-14T18:20:10.013Z,75.79
2018-01-14T18:22:38.358Z,75.64
2018-01-14T18:25:07.919Z,76.02
2018-01-14T18:27:41.934Z,76.23
2018-01-14T18:30:14.043Z,76.30
2018-01-14T18:32:42.373Z,76.01
2018-01-14T18:35:10.884Z,76.30
2018-01-14T18:37:41.884Z,76.61
2018-01-14T18:40:12.468Z,76.34
2018-01-14T18:42:45.374Z,76.53
2018-01-14T18:45:14.853Z,76.47
2018-01-14T18:47:45.843Z,76.72
2018-01-14T18:50:14.304Z,76.24
2018-01-14T18:52:42.886Z,76.34
2018-01-14T18:55:14.434Z,76.88
2018-01-14T18:57:45.144Z,77.08
2018-01-14T19:00:13.547Z,78.22
2018-01-14T19:02:43.781Z,79.43
2018-01-14T19:05:12.358Z,80.04
2018-01-14T19:07:40.649Z,80.44
2018-01-14T19:10:08.993Z,80.82
2018-01-14T19:12:38.285Z,81.32
2018-01-14T19:15:07.535Z,81.91
2018-01-14T19:17:35.954Z,81.90
2018-01-14T19:20:07.361Z,82.31
2018-01-14T19:22:36.110Z,82.15
2018-01-14T19:25:07.072Z,82.45
2018-01-14T19:27:36.507Z,82.90
2018-01-14T19:30:04.911Z,82.19
2018-01-14T19:32:33.268Z,82.20
2018-01-14T19:35:01.632Z,82.66
2018-01-14T19:37:30.038Z,81.74
2018-01-14T19:39:58.438Z,81.37
2018-01-14T19:42:26.824Z,82.50
2018-01-14T19:44:57.372Z,82.44
2018-01-14T19:47:26.633Z,82.36
2018-01-14T19:49:55.400Z,83.06
2018-01-14T19:52:23.689Z,82.90
2018-01-14T19:54:52.059Z,82.94
2018-01-14T19:57:21.460Z,82.94
2018-01-14T19:59:49.736Z,81.85
2018-01-14T20:02:18.377Z,82.17
2018-01-14T20:04:47.766Z,83.38
2018-01-14T20:07:16.553Z,84.71
2018-01-14T20:09:45.048Z,83.96
2018-01-14T20:12:13.583Z,83.33
2018-01-14T20:14:42.192Z,84.26
2018-01-14T20:17:12.596Z,83.48
2018-01-14T20:19:41.242Z,83.62
2018-01-14T20:22:10.771Z,83.64
2018-01-14T20:24:41.564Z,83.52
2018-01-14T20:27:10.060Z,83.68
2018-01-14T20:29:42.779Z,84.43
2018-01-14T20:32:11.628Z,85.23
2018-01-14T20:34:40.946Z,84.80
2018-01-14T20:37:11.192Z,83.95
2018-01-14T20:39:48.142Z,83.71
2018-01-14T20:42:17.595Z,84.30
2018-01-14T20:44:51.776Z,85.13
2018-01-14T20:47:22.947Z,84.25
2018-01-14T20:49:51.463Z,83.62
2018-01-14T20:52:19.922Z,84.61
2018-01-14T20:54:50.385Z,85.31
2018-01-14T20:57:29.464Z,85.76
2018-01-14T20:59:59.146Z,85.17
2018-01-14T21:02:28.465Z,84.59
2018-01-14T21:04:56.836Z,84.25
2018-01-14T21:07:26.240Z,84.20
2018-01-14T21:09:54.568Z,84.61
2018-01-14T21:12:23.877Z,85.21
2018-01-14T21:14:53.057Z,85.97
2018-01-14T21:17:22.407Z,85.24
2018-01-14T21:19:50.730Z,84.86
2018-01-14T21:22:21.063Z,85.90
2018-01-14T21:24:49.458Z,86.35
2018-01-14T21:27:17.746Z,86.63
2018-01-14T21:29:47.057Z,86.66
2018-01-14T21:32:18.518Z,86.54
2018-01-14T21:34:46.877Z,86.30
2018-01-14T21:37:15.246Z,86.36
2018-01-14T21:39:43.640Z,86.56
2018-01-14T21:42:11.989Z,86.61
2018-01-14T21:44:41.304Z,86.50
2018-01-14T21:47:09.685Z,86.29
2018-01-14T21:49:38.122Z,86.25
2018-01-14T21:52:06.463Z,86.36
2018-01-14T21:54:35.752Z,86.98
2018-01-14T21:57:04.214Z,86.88
2018-01-14T21:59:33.460Z,86.72
2018-01-14T22:02:06.120Z,86.72
2018-01-14T22:04:35.464Z,85.88
2018-01-14T22:07:04.699Z,85.60
2018-01-14T22:09:36.791Z,86.25
2018-01-14T22:12:06.089Z,86.93
2018-01-14T22:14:34.495Z,86.78
2018-01-14T22:17:02.887Z,86.84
2018-01-14T22:19:35.340Z,86.61
2018-01-14T22:22:03.629Z,85.78
2018-01-14T22:24:36.830Z,86.36
2018-01-14T22:27:05.298Z,86.62
2018-01-14T22:29:33.644Z,86.41
2018-01-14T22:32:02.024Z,85.89
2018-01-14T22:34:30.414Z,85.69
2018-01-14T22:36:58.795Z,85.59
2018-01-14T22:39:27.191Z,86.32
2018-01-14T22:41:55.527Z,86.79
2018-01-14T22:44:25.766Z,86.82
2018-01-14T22:46:54.173Z,86.33
2018-01-14T22:49:22.551Z,86.65
2018-01-14T22:51:50.908Z,86.49
2018-01-14T22:54:20.249Z,85.85
2018-01-14T22:56:48.601Z,86.47
2018-01-14T22:59:17.024Z,86.96
2018-01-14T23:01:46.288Z,87.07
2018-01-14T23:04:14.658Z,86.39
2018-01-14T23:06:43.062Z,86.49
2018-01-14T23:09:12.333Z,86.66
2018-01-14T23:11:40.714Z,86.51
2018-01-14T23:14:09.114Z,86.17
2018-01-14T23:16:37.477Z,86.27
2018-01-14T23:19:06.807Z,85.99
2018-01-14T23:21:37.103Z,86.78
2018-01-14T23:24:05.367Z,86.83
2018-01-14T23:26:35.674Z,86.92
2018-01-14T23:29:06.791Z,86.49
2018-01-14T23:31:38.216Z,86.42
2018-01-14T23:34:08.730Z,86.33
2018-01-14T23:36:37.111Z,86.99
2018-01-14T23:39:05.518Z,86.90
2018-01-14T23:41:35.771Z,87.08
2018-01-14T23:44:05.038Z,86.61
2018-01-14T23:46:33.381Z,86.27
2018-01-14T23:49:01.838Z,86.79
2018-01-14T23:51:32.335Z,86.81
2018-01-14T23:54:02.004Z,86.76
2018-01-14T23:56:30.276Z,86.68
2018-01-14T23:58:58.654Z,87.04
